createdAt,value
2019-06-26T00:08:44.536Z,11.10
2019-06-26T00:19:29.742Z,13.00
2019-06-26T00:30:14.770Z,10.00
2019-06-26T00:40:59.739Z,10.20
2019-06-26T00:51:44.782Z,12.40
2019-06-26T01:02:26.426Z,11.10
2019-06-26T01:13:10.790Z,11.30
2019-06-26T01:23:55.305Z,10.80
2019-06-26T01:34:39.669Z,13.10
2019-06-26T01:45:25.532Z,16.00
2019-06-26T01:56:11.588Z,15.20
2019-06-26T02:06:55.593Z,16.50
2019-06-26T02:17:39.615Z,14.20
2019-06-26T02:28:23.624Z,16.90
2019-06-26T02:39:08.350Z,15.80
2019-06-26T02:49:52.549Z,19.10
2019-06-26T03:00:37.720Z,17.00
2019-06-26T03:11:22.693Z,16.70
2019-06-26T03:22:07.711Z,18.20
2019-06-26T03:32:51.358Z,16.30
2019-06-26T03:43:28.474Z,19.50
2019-06-26T03:54:14.559Z,20.00
2019-06-26T04:04:58.759Z,19.10
2019-06-26T04:15:42.860Z,18.20
2019-06-26T04:26:24.897Z,19.00
2019-06-26T04:37:10.735Z,19.90
2019-06-26T04:47:56.611Z,20.30
2019-06-26T04:58:41.793Z,24.70
2019-06-26T05:09:28.678Z,29.20
2019-06-26T05:20:09.561Z,27.80
2019-06-26T05:30:50.813Z,26.00
2019-06-26T05:41:31.753Z,25.60
2019-06-26T05:52:16.718Z,21.90
2019-06-26T06:02:59.718Z,22.70
2019-06-26T06:13:47.722Z,22.80
2019-06-26T06:24:32.773Z,20.50
2019-06-26T06:35:17.675Z,24.40
2019-06-26T06:46:00.580Z,21.50
2019-06-26T06:56:44.874Z,24.80
2019-06-26T07:07:29.848Z,20.60
2019-06-26T07:18:14.775Z,25.70
2019-06-26T07:28:57.800Z,25.30
2019-06-26T07:39:39.611Z,25.60
2019-06-26T07:50:23.835Z,31.70
2019-06-26T08:01:07.772Z,24.50
2019-06-26T08:11:52.900Z,25.30
2019-06-26T08:22:33.836Z,31.70
2019-06-26T08:33:18.988Z,29.00
2019-06-26T08:44:05.046Z,31.00
2019-06-26T08:54:49.603Z,30.70
2019-06-26T09:05:46.973Z,33.30
2019-06-26T09:16:16.929Z,26.50
2019-06-26T09:27:03.023Z,23.10
2019-06-26T09:37:47.639Z,21.50
2019-06-26T09:48:31.908Z,21.40
2019-06-26T09:59:13.976Z,23.20
2019-06-26T10:09:52.588Z,20.80
2019-06-26T10:20:31.610Z,23.10
2019-06-26T10:31:07.648Z,23.90
2019-06-26T10:41:46.916Z,22.10
2019-06-26T10:52:29.980Z,21.50
2019-06-26T11:03:11.024Z,22.20
2019-06-26T11:13:54.803Z,21.60
2019-06-26T11:24:32.783Z,24.20
2019-06-26T11:35:11.062Z,22.40
2019-06-26T11:45:54.635Z,19.40
2019-06-26T11:56:32.752Z,18.00
2019-06-26T12:07:19.217Z,17.60
2019-06-26T12:17:48.558Z,18.30
2019-06-26T12:28:14.081Z,17.60
2019-06-26T12:38:58.515Z,18.20
2019-06-26T13:21:27.113Z,14.50
2019-06-26T13:32:10.113Z,14.20
2019-06-26T13:42:54.025Z,16.90
2019-06-26T13:53:39.088Z,16.40
2019-06-26T14:04:25.012Z,15.30
2019-06-26T14:15:08.755Z,17.50
2019-06-26T14:25:52.190Z,17.20
2019-06-26T14:36:31.773Z,17.60
2019-06-26T14:47:12.174Z,17.30
2019-06-26T14:57:46.786Z,17.40
2019-06-26T15:08:28.225Z,15.40
2019-06-26T15:19:11.989Z,16.10
2019-06-26T15:29:46.018Z,17.10
2019-06-26T15:40:28.231Z,15.30
2019-06-26T15:51:11.026Z,15.60
2019-06-26T16:01:47.209Z,16.70
2019-06-26T16:12:27.973Z,16.70
2019-06-26T16:23:10.867Z,20.50
2019-06-26T16:33:47.288Z,15.70
2019-06-26T16:44:24.136Z,13.20
2019-06-26T16:55:03.846Z,13.60
2019-06-26T17:05:43.946Z,14.10
2019-06-26T17:16:19.244Z,12.20
2019-06-26T17:27:00.975Z,16.00
2019-06-26T17:37:44.205Z,20.50
2019-06-26T17:48:28.250Z,20.90
2019-06-26T17:59:06.022Z,19.80
2019-06-26T18:09:50.153Z,16.70
2019-06-26T18:20:34.395Z,15.30
2019-06-26T18:31:19.024Z,16.40
2019-06-26T18:42:02.165Z,15.40
2019-06-26T18:52:39.030Z,17.90
2019-06-26T19:03:22.946Z,19.30
2019-06-26T19:14:07.219Z,23.30
2019-06-26T19:24:49.903Z,20.50
2019-06-26T19:35:32.213Z,20.40
2019-06-26T19:46:15.068Z,16.50
2019-06-26T19:56:59.308Z,19.10
2019-06-26T20:07:42.965Z,16.60
2019-06-26T20:18:28.280Z,16.00
2019-06-26T20:29:12.151Z,17.60
2019-06-26T20:39:56.248Z,16.00
2019-06-26T20:50:39.738Z,16.90
2019-06-26T21:01:23.259Z,16.70
2019-06-26T21:12:08.411Z,17.50
2019-06-26T21:22:58.828Z,14.40
2019-06-26T21:33:37.211Z,16.00
2019-06-26T21:44:12.341Z,13.30
2019-06-26T21:54:54.589Z,14.20
2019-06-26T22:05:39.277Z,13.80
2019-06-26T22:16:14.274Z,13.10
2019-06-26T22:26:57.520Z,12.50
2019-06-26T22:37:41.508Z,12.20
2019-06-26T22:48:25.344Z,16.00
2019-06-26T22:59:11.430Z,14.30
2019-06-26T23:09:54.191Z,14.10
2019-06-26T23:20:36.177Z,12.80
2019-06-26T23:31:20.375Z,12.00
2019-06-26T23:41:57.179Z,12.10
2019-06-26T23:52:39.100Z,11.30
